Terminal Aerodrome Forecast
Issued by NWS

Home | Current Version | Previous Version | Graphics & Text | Print | Product List | Glossary On
Versions: 1 2 3 4 5 6 7 8 9 10 11 12 13 14 15 16 17 18 19 20 21 22 23 24 25 26 27 28 29 30 31 32 33 34 35 36 37
000
FTUS43 KGRB 300520
TAFRHI
TAF
KRHI 300520Z 3006/0106 33005KT 4SM BR VCSH BKN012 BKN025
     FM300800 34005KT 6SM BR BKN012
      TEMPO 3009/3013 3SM BR BKN005
     FM301500 35007KT P6SM SCT015 BKN025
     FM301900 36009KT P6SM BKN035
     FM302200 36005KT P6SM SKC=

USA.gov is the U.S. government's official web portal to all federal, state and local government web resources and services.